createdAt,value
2023-04-11T00:34:03.141Z,99935.45
2023-04-11T00:48:53.991Z,99979.41
2023-04-11T01:03:44.806Z,100031.38
2023-04-11T01:18:35.174Z,100029.80
2023-04-11T01:33:26.439Z,100010.05
2023-04-11T01:48:18.522Z,100010.13
2023-04-11T02:03:09.599Z,100012.47
2023-04-11T02:18:01.300Z,100030.70
2023-04-11T02:32:52.303Z,100024.19
2023-04-11T02:47:43.076Z,100046.70
2023-04-11T03:02:34.836Z,100047.64
2023-04-11T03:17:25.932Z,100072.67
2023-04-11T03:32:17.421Z,100090.38
2023-04-11T03:47:09.338Z,100080.91
2023-04-11T04:02:00.311Z,100076.81
2023-04-11T04:16:51.087Z,100102.20
2023-04-11T04:31:41.694Z,100073.84
2023-04-11T04:46:32.442Z,100099.91
2023-04-11T05:01:23.602Z,100142.61
2023-04-11T05:16:14.238Z,100180.28
2023-04-11T05:31:04.427Z,100199.01
2023-04-11T05:45:55.886Z,100201.77
2023-04-11T06:00:46.551Z,100220.88
2023-04-11T06:15:38.570Z,100253.59
2023-04-11T07:00:15.063Z,100308.33
2023-04-11T07:30:01.114Z,100321.03
2023-04-11T07:59:45.594Z,100324.35
2023-04-11T08:14:35.652Z,100352.32
2023-04-11T08:29:24.710Z,100351.19
2023-04-11T08:44:17.357Z,100360.81
2023-04-11T08:59:09.484Z,100360.02
2023-04-11T09:14:04.592Z,100364.59
2023-04-11T09:28:59.967Z,100340.63
2023-04-11T09:43:52.536Z,100352.44
2023-04-11T09:58:44.151Z,100370.23
2023-04-11T10:13:35.012Z,100363.75
2023-04-11T10:28:38.448Z,100365.73
2023-04-11T10:43:34.104Z,100355.34
2023-04-11T10:58:26.504Z,100340.31
2023-04-11T11:13:17.759Z,100346.16
2023-04-11T11:28:10.168Z,100350.28
2023-04-11T11:43:02.381Z,100359.80
2023-04-11T11:57:55.297Z,100364.38
2023-04-11T12:12:43.853Z,100395.12
2023-04-11T12:27:36.225Z,100374.58
2023-04-11T12:42:27.708Z,100374.17
2023-04-11T12:57:17.761Z,100364.38
2023-04-11T13:12:09.717Z,100352.73
2023-04-11T13:27:04.127Z,100341.58
2023-04-11T13:41:55.948Z,100343.22
2023-04-11T13:56:50.301Z,100323.23
2023-04-11T14:11:43.267Z,100324.55
2023-04-11T14:26:37.345Z,100325.23
2023-04-11T14:41:27.383Z,100307.14
2023-04-11T15:11:17.622Z,100287.70
2023-04-11T15:26:10.031Z,100275.51
2023-04-11T15:40:56.446Z,100253.27
2023-04-11T15:55:46.297Z,100244.23
2023-04-11T16:25:26.331Z,100230.45
2023-04-11T16:55:07.652Z,100210.45
2023-04-11T18:53:58.266Z,100194.13
2023-04-11T19:08:48.815Z,100186.45
2023-04-11T19:23:39.574Z,100171.85
2023-04-11T19:38:30.642Z,100160.09
2023-04-11T19:53:21.599Z,100142.19
2023-04-11T20:08:12.615Z,100120.79
2023-04-11T20:23:03.675Z,100099.00
2023-04-11T20:37:54.781Z,100080.53
2023-04-11T20:52:46.560Z,100059.45
2023-04-11T21:07:38.197Z,100043.75
2023-04-11T21:22:29.571Z,100021.03
2023-04-11T21:37:21.485Z,100000.80
2023-04-11T21:52:12.642Z,99963.00
2023-04-11T22:07:03.948Z,99942.48
2023-04-11T22:21:55.850Z,99914.43
2023-04-11T22:36:47.229Z,99895.63
2023-04-11T22:51:38.265Z,99885.17
2023-04-11T23:06:29.650Z,99872.52
2023-04-11T23:21:28.958Z,99880.50
